Risingsun, Iowa
Current Conditions -  °F | °C
As of 11:15 PM on Saturday 20 Dec 2014 (Local Time) from KIKV Reporting Station
Haze Haze  
Wind Chill: 29°   Ceiling: 300
Heat Index: 36°   Visibility: 2.5mi
Dew Point: 36°   Wind: 8mph
Humidity: 100%   Direction: 150°SSE
Pressure: 30.09"   Gusts: NA
Location:  41.6142°N, 93.5543°W
Report Text: KIKV 210515Z AUTO 15007KT 2 1/2SM BR OVC003 02/02 A3009 RMK AO2
Loading
Personal Weather Stations






























Interactive Weather Map New forecast layout! Learn more

10-Day Weather Forecast

Advertisements
Track Severe Weather on mobile